Report METAR

 

LIBV - Gioia Del Colle, Italy
Distanza dalla stazione: SSE 15km
Dati ricevuti: 16/11/2018 00:55
Sereno
Sereno
 Vento da NO
Vento: NO 11 km/h
Temperatura: 12°C
P.to Rugiada: 9°C
Umidità: 82%
Barometro: 1020 hPa
Riassunto: Sereno
Visibilità: superiore a 10 km
2018/11/15 23:55 LIBV 152355Z 31006KT CAVOK 12/09 Q1020 RMK SCT FEW140 SCT200 VIS MIN 9999 WIND THR32 33004KT WIND THR14 32006KT BLU
LIBD - Bari/Palese Macc, Italy
Distanza dalla stazione: NNO 26km
Dati ricevuti: 16/11/2018 01:50
Sereno
Sereno
 Vento da O
Vento: O 11 km/h
Temperatura: 12°C
P.to Rugiada: 7°C
Umidità: 72%
Barometro: 1020 hPa
Riassunto: Sereno
Visibilità: superiore a 10 km
2018/11/16 00:50 LIBD 160050Z 27006KT CAVOK 12/07 Q1020
LIBH - Marina Di Ginosa, Italy
Distanza dalla stazione: S 53km
Dati ricevuti: 16/11/2018 00:55
Sereno
Sereno
 Vento da ONO
Vento: ONO 9 km/h
Temperatura: 12°C
P.to Rugiada: 9°C
Umidità: 82%
Barometro: 1019 hPa
Riassunto: Sereno
Visibilità: superiore a 10 km
2018/11/15 23:55 LIBH 152355Z 30005KT CAVOK 12/09 Q1019 RMK BKN BKN060 QUK / QUL / VIS MAR 15 KM VIS MIN 9999
 
LIBG - Grottaglie(Civ/A, Italy
Distanza dalla stazione: SE 61km
Dati ricevuti: 15/11/2018 19:50
DATI Obsoleti
Sereno
Sereno
 Vento da Variabile
Vento: Variabile 4 km/h
Temperatura: 11°C
P.to Rugiada: 9°C
Umidità: 88%
Barometro: 1020 hPa
Riassunto: Sereno
Visibilità: superiore a 10 km
2018/11/15 18:50 LIBG 151850Z VRB02KT CAVOK 11/09 Q1020
LIBR - Brindisi/Casale, Italy
Distanza dalla stazione: ESE 96km
Dati ricevuti: 16/11/2018 01:50
Sereno
Sereno
 Vento da NNE
Vento: NNE 24 km/h
Temperatura: 16°C
P.to Rugiada: 6°C
Umidità: 52%
Barometro: 1019 hPa
Riassunto: Sereno
Visibilità: superiore a 10 km
2018/11/16 00:50 LIBR 160050Z 02013KT CAVOK 16/06 Q1019
LIBA - Amendola (it-Afb, Italy
Distanza dalla stazione: NO 118km
Dati ricevuti: 15/11/2018 18:55
DATI Obsoleti
Poche nubi
Poche nubi
 Vento da Variabile
Vento: Variabile 0 km/h
Temperatura: 10°C
P.to Rugiada: 9°C
Umidità: 94%
Barometro: 1021 hPa
Nuvole: Poche nubi
Visibilità: 10 km
Dettagli nuvole: Poche nubi 762 m
2018/11/15 17:55 LIBA 151755Z /////KT 9999 FEW025 10/09 Q1021 RMK SCT SCT200 VIS MIN 9999 WIND THR11 28007KT WIND THR29 /////KT BLU
 
LIBF - Foggia/Gino Lisa, Italy
Distanza dalla stazione: ONO 126km
Dati ricevuti: 15/11/2018 15:50
DATI Obsoleti
Sereno
Sereno
 Vento da NO
Vento: NO 24 km/h
Temperatura: 16°C
P.to Rugiada: 7°C
Umidità: 55%
Barometro: 1021 hPa
Riassunto: Sereno
Visibilità: superiore a 10 km
2018/11/15 14:50 LIBF 151450Z 32013KT CAVOK 16/07 Q1021
LIBN - Lecce (it-Afb), Italy
Distanza dalla stazione: SE 132km
Dati ricevuti: 16/11/2018 00:55
Poche nubi
Poche nubi
 Vento da NNO
Vento: NNO 11 km/h
Temperatura: 13°C
P.to Rugiada: 10°C
Umidità: 82%
Barometro: 1019 hPa
Nuvole: Poche nubi
Visibilità: 10 km
Dettagli nuvole: Poche nubi 610 m
2018/11/15 23:55 LIBN 152355Z 33006KT 9999 FEW020 13/10 Q1019 RMK BKN BKN100 VIS MIN 9999 WIND THR14 33005KT WIND THR32 33006KT BLU